Terminal Aerodrome Forecast
Issued by NWS Dodge City, KS

Home | Current Version | Previous Version | Text Only | Print | Product List | Glossary On
Versions: 1 2 3 4 5 6 7 8 9 10 11 12 13 14 15 16 17 18
000
FTUS43 KDDC 210500
TAFDDC
TAF
KDDC 210534Z 2106/2206 17008KT P6SM BKN200
      TEMPO 2110/2113 4SM BR
     FM211400 01014KT P6SM SCT250
     FM212000 02012G20KT P6SM VCSH SCT050
     FM220000 04008KT P6SM FEW050=

USA.gov is the U.S. government's official web portal to all federal, state and local government web resources and services.